sensor_id;sensor_type;location;lat;lon;timestamp;P1;durP1;ratioP1;P2;durP2;ratioP2
35330;SDS011;21441;52.190;20.910;2024-02-26T00:00:15;23.85;;;15.10;;
35330;SDS011;21441;52.190;20.910;2024-02-26T00:03:04;25.02;;;16.65;;
35330;SDS011;21441;52.190;20.910;2024-02-26T00:05:31;28.35;;;16.88;;
35330;SDS011;21441;52.190;20.910;2024-02-26T00:07:58;29.20;;;17.25;;
35330;SDS011;21441;52.190;20.910;2024-02-26T00:10:24;24.85;;;16.67;;
35330;SDS011;21441;52.190;20.910;2024-02-26T00:12:51;26.25;;;17.33;;
35330;SDS011;21441;52.190;20.910;2024-02-26T00:15:18;25.58;;;16.55;;
35330;SDS011;21441;52.190;20.910;2024-02-26T00:17:45;22.52;;;16.02;;
35330;SDS011;21441;52.190;20.910;2024-02-26T00:20:13;26.17;;;16.88;;
35330;SDS011;21441;52.190;20.910;2024-02-26T00:22:40;26.65;;;16.38;;
35330;SDS011;21441;52.190;20.910;2024-02-26T00:25:06;27.27;;;16.58;;
35330;SDS011;21441;52.190;20.910;2024-02-26T00:27:33;23.88;;;15.60;;
35330;SDS011;21441;52.190;20.910;2024-02-26T00:30:00;27.10;;;14.95;;
35330;SDS011;21441;52.190;20.910;2024-02-26T00:32:27;25.25;;;15.35;;
35330;SDS011;21441;52.190;20.910;2024-02-26T00:34:53;27.80;;;15.68;;
35330;SDS011;21441;52.190;20.910;2024-02-26T00:37:22;28.67;;;17.35;;
35330;SDS011;21441;52.190;20.910;2024-02-26T00:39:48;26.35;;;16.08;;
35330;SDS011;21441;52.190;20.910;2024-02-26T00:42:15;29.08;;;17.60;;
35330;SDS011;21441;52.190;20.910;2024-02-26T00:44:42;25.70;;;15.63;;
35330;SDS011;21441;52.190;20.910;2024-02-26T00:47:09;26.40;;;17.00;;
35330;SDS011;21441;52.190;20.910;2024-02-26T00:49:35;26.30;;;16.83;;
35330;SDS011;21441;52.190;20.910;2024-02-26T00:52:02;27.17;;;17.58;;
35330;SDS011;21441;52.190;20.910;2024-02-26T00:54:30;31.02;;;17.10;;
35330;SDS011;21441;52.190;20.910;2024-02-26T00:56:57;32.90;;;19.20;;
35330;SDS011;21441;52.190;20.910;2024-02-26T00:59:24;27.08;;;17.35;;
35330;SDS011;21441;52.190;20.910;2024-02-26T01:01:51;29.98;;;18.48;;
35330;SDS011;21441;52.190;20.910;2024-02-26T01:04:17;29.77;;;18.33;;
35330;SDS011;21441;52.190;20.910;2024-02-26T01:06:44;30.60;;;16.95;;
35330;SDS011;21441;52.190;20.910;2024-02-26T01:09:11;30.23;;;17.23;;
35330;SDS011;21441;52.190;20.910;2024-02-26T01:11:39;30.70;;;17.40;;
35330;SDS011;21441;52.190;20.910;2024-02-26T01:14:06;26.88;;;17.90;;
35330;SDS011;21441;52.190;20.910;2024-02-26T01:16:33;30.80;;;16.33;;
35330;SDS011;21441;52.190;20.910;2024-02-26T01:19:00;29.30;;;17.98;;
35330;SDS011;21441;52.190;20.910;2024-02-26T01:21:28;27.70;;;18.02;;
35330;SDS011;21441;52.190;20.910;2024-02-26T01:23:55;31.88;;;17.95;;
35330;SDS011;21441;52.190;20.910;2024-02-26T01:26:23;28.63;;;18.10;;
35330;SDS011;21441;52.190;20.910;2024-02-26T01:28:51;29.65;;;19.00;;
35330;SDS011;21441;52.190;20.910;2024-02-26T01:31:18;30.30;;;17.23;;
35330;SDS011;21441;52.190;20.910;2024-02-26T01:33:44;27.90;;;17.48;;
35330;SDS011;21441;52.190;20.910;2024-02-26T01:36:11;27.40;;;17.52;;
35330;SDS011;21441;52.190;20.910;2024-02-26T01:38:38;24.60;;;16.83;;
35330;SDS011;21441;52.190;20.910;2024-02-26T01:41:05;29.70;;;18.98;;
35330;SDS011;21441;52.190;20.910;2024-02-26T01:43:31;27.38;;;17.67;;
35330;SDS011;21441;52.190;20.910;2024-02-26T01:46:00;26.13;;;17.27;;
35330;SDS011;21441;52.190;20.910;2024-02-26T01:48:26;27.88;;;18.45;;
35330;SDS011;21441;52.190;20.910;2024-02-26T01:50:53;26.90;;;17.88;;
35330;SDS011;21441;52.190;20.910;2024-02-26T01:53:20;35.65;;;19.48;;
35330;SDS011;21441;52.190;20.910;2024-02-26T01:55:47;30.92;;;18.83;;
35330;SDS011;21441;52.190;20.910;2024-02-26T01:58:14;28.15;;;17.67;;
35330;SDS011;21441;52.190;20.910;2024-02-26T02:00:41;30.55;;;18.92;;
35330;SDS011;21441;52.190;20.910;2024-02-26T02:03:09;29.00;;;18.73;;
35330;SDS011;21441;52.190;20.910;2024-02-26T02:05:36;31.33;;;18.25;;
35330;SDS011;21441;52.190;20.910;2024-02-26T02:08:07;31.10;;;18.23;;
35330;SDS011;21441;52.190;20.910;2024-02-26T02:10:34;32.00;;;18.95;;
35330;SDS011;21441;52.190;20.910;2024-02-26T02:13:00;29.63;;;17.67;;
35330;SDS011;21441;52.190;20.910;2024-02-26T02:15:27;30.52;;;19.90;;
35330;SDS011;21441;52.190;20.910;2024-02-26T02:17:54;31.13;;;19.02;;
35330;SDS011;21441;52.190;20.910;2024-02-26T02:20:24;30.00;;;18.45;;
35330;SDS011;21441;52.190;20.910;2024-02-26T02:22:52;28.77;;;18.20;;
35330;SDS011;21441;52.190;20.910;2024-02-26T02:25:19;26.35;;;17.75;;
35330;SDS011;21441;52.190;20.910;2024-02-26T02:27:46;36.17;;;21.42;;
35330;SDS011;21441;52.190;20.910;2024-02-26T02:30:13;30.67;;;19.38;;
35330;SDS011;21441;52.190;20.910;2024-02-26T02:32:40;29.52;;;18.48;;
35330;SDS011;21441;52.190;20.910;2024-02-26T02:35:08;32.78;;;18.75;;
35330;SDS011;21441;52.190;20.910;2024-02-26T02:37:36;28.13;;;17.77;;
35330;SDS011;21441;52.190;20.910;2024-02-26T02:40:04;25.45;;;18.90;;
35330;SDS011;21441;52.190;20.910;2024-02-26T02:42:30;29.60;;;18.35;;
35330;SDS011;21441;52.190;20.910;2024-02-26T02:44:58;29.40;;;18.73;;
35330;SDS011;21441;52.190;20.910;2024-02-26T02:47:24;27.05;;;17.10;;
35330;SDS011;21441;52.190;20.910;2024-02-26T02:49:51;30.77;;;19.13;;
35330;SDS011;21441;52.190;20.910;2024-02-26T02:52:18;31.10;;;18.90;;
35330;SDS011;21441;52.190;20.910;2024-02-26T02:54:46;30.60;;;18.48;;
35330;SDS011;21441;52.190;20.910;2024-02-26T02:57:13;27.98;;;18.60;;
35330;SDS011;21441;52.190;20.910;2024-02-26T02:59:39;29.75;;;18.15;;
35330;SDS011;21441;52.190;20.910;2024-02-26T03:02:06;25.52;;;17.73;;
35330;SDS011;21441;52.190;20.910;2024-02-26T03:04:33;31.25;;;18.85;;
35330;SDS011;21441;52.190;20.910;2024-02-26T03:07:00;30.15;;;17.35;;
35330;SDS011;21441;52.190;20.910;2024-02-26T03:09:27;33.20;;;18.38;;
35330;SDS011;21441;52.190;20.910;2024-02-26T03:11:55;28.92;;;18.13;;
35330;SDS011;21441;52.190;20.910;2024-02-26T03:14:22;29.58;;;18.25;;
35330;SDS011;21441;52.190;20.910;2024-02-26T03:16:48;31.27;;;18.65;;
35330;SDS011;21441;52.190;20.910;2024-02-26T03:19:15;30.20;;;18.35;;
35330;SDS011;21441;52.190;20.910;2024-02-26T03:21:42;27.50;;;17.95;;
35330;SDS011;21441;52.190;20.910;2024-02-26T03:24:09;30.17;;;19.02;;
35330;SDS011;21441;52.190;20.910;2024-02-26T03:26:37;32.40;;;18.55;;
35330;SDS011;21441;52.190;20.910;2024-02-26T03:29:05;30.73;;;19.85;;
35330;SDS011;21441;52.190;20.910;2024-02-26T03:31:32;29.83;;;18.23;;
35330;SDS011;21441;52.190;20.910;2024-02-26T03:33:59;27.08;;;16.35;;
35330;SDS011;21441;52.190;20.910;2024-02-26T03:36:25;29.00;;;18.30;;
35330;SDS011;21441;52.190;20.910;2024-02-26T03:38:52;28.95;;;18.40;;
35330;SDS011;21441;52.190;20.910;2024-02-26T03:41:19;29.10;;;18.30;;
35330;SDS011;21441;52.190;20.910;2024-02-26T03:43:46;30.55;;;18.73;;
35330;SDS011;21441;52.190;20.910;2024-02-26T03:46:14;28.25;;;17.88;;
35330;SDS011;21441;52.190;20.910;2024-02-26T03:48:41;31.52;;;19.65;;
35330;SDS011;21441;52.190;20.910;2024-02-26T03:51:08;30.42;;;18.10;;
35330;SDS011;21441;52.190;20.910;2024-02-26T03:53:35;27.27;;;17.98;;
35330;SDS011;21441;52.190;20.910;2024-02-26T03:56:02;28.27;;;17.73;;
35330;SDS011;21441;52.190;20.910;2024-02-26T03:58:29;28.65;;;17.08;;
35330;SDS011;21441;52.190;20.910;2024-02-26T04:00:56;29.45;;;18.27;;
35330;SDS011;21441;52.190;20.910;2024-02-26T04:03:24;25.83;;;17.83;;
35330;SDS011;21441;52.190;20.910;2024-02-26T04:05:51;27.55;;;18.13;;
35330;SDS011;21441;52.190;20.910;2024-02-26T04:08:18;26.48;;;17.60;;
35330;SDS011;21441;52.190;20.910;2024-02-26T04:10:44;27.23;;;17.45;;
35330;SDS011;21441;52.190;20.910;2024-02-26T04:13:11;28.55;;;17.83;;
35330;SDS011;21441;52.190;20.910;2024-02-26T04:15:38;30.55;;;17.63;;
35330;SDS011;21441;52.190;20.910;2024-02-26T04:18:05;26.90;;;16.55;;
35330;SDS011;21441;52.190;20.910;2024-02-26T04:20:33;26.67;;;17.40;;
35330;SDS011;21441;52.190;20.910;2024-02-26T04:23:00;28.60;;;17.67;;
35330;SDS011;21441;52.190;20.910;2024-02-26T04:25:27;26.30;;;16.70;;
35330;SDS011;21441;52.190;20.910;2024-02-26T04:27:54;30.23;;;16.63;;
35330;SDS011;21441;52.190;20.910;2024-02-26T04:30:21;29.45;;;16.27;;
35330;SDS011;21441;52.190;20.910;2024-02-26T04:32:48;29.92;;;17.33;;
35330;SDS011;21441;52.190;20.910;2024-02-26T04:35:14;25.65;;;16.67;;
35330;SDS011;21441;52.190;20.910;2024-02-26T04:37:42;24.83;;;16.15;;
35330;SDS011;21441;52.190;20.910;2024-02-26T04:40:09;27.40;;;16.67;;
35330;SDS011;21441;52.190;20.910;2024-02-26T04:42:36;26.88;;;16.67;;
35330;SDS011;21441;52.190;20.910;2024-02-26T04:45:03;25.20;;;16.05;;
35330;SDS011;21441;52.190;20.910;2024-02-26T04:47:30;25.05;;;16.83;;
35330;SDS011;21441;52.190;20.910;2024-02-26T04:49:57;29.23;;;17.45;;
35330;SDS011;21441;52.190;20.910;2024-02-26T04:52:23;29.17;;;17.15;;
35330;SDS011;21441;52.190;20.910;2024-02-26T04:54:51;26.58;;;16.73;;
35330;SDS011;21441;52.190;20.910;2024-02-26T04:57:18;28.23;;;17.50;;
35330;SDS011;21441;52.190;20.910;2024-02-26T04:59:44;24.00;;;16.20;;
35330;SDS011;21441;52.190;20.910;2024-02-26T05:02:11;27.25;;;16.88;;
35330;SDS011;21441;52.190;20.910;2024-02-26T05:04:38;33.35;;;19.25;;
35330;SDS011;21441;52.190;20.910;2024-02-26T05:07:05;30.90;;;18.33;;
35330;SDS011;21441;52.190;20.910;2024-02-26T05:09:31;31.27;;;17.83;;
35330;SDS011;21441;52.190;20.910;2024-02-26T05:12:00;32.83;;;19.17;;
35330;SDS011;21441;52.190;20.910;2024-02-26T05:14:27;30.20;;;18.05;;
35330;SDS011;21441;52.190;20.910;2024-02-26T05:16:54;36.58;;;19.38;;
35330;SDS011;21441;52.190;20.910;2024-02-26T05:19:21;35.83;;;19.55;;
35330;SDS011;21441;52.190;20.910;2024-02-26T05:21:48;31.83;;;18.95;;
35330;SDS011;21441;52.190;20.910;2024-02-26T05:24:15;34.95;;;19.40;;
35330;SDS011;21441;52.190;20.910;2024-02-26T05:26:43;34.78;;;20.25;;
35330;SDS011;21441;52.190;20.910;2024-02-26T05:29:11;29.50;;;18.80;;
35330;SDS011;21441;52.190;20.910;2024-02-26T05:31:38;29.88;;;18.15;;
35330;SDS011;21441;52.190;20.910;2024-02-26T05:34:04;32.75;;;18.50;;
35330;SDS011;21441;52.190;20.910;2024-02-26T05:36:31;28.58;;;18.33;;
35330;SDS011;21441;52.190;20.910;2024-02-26T05:38:58;28.85;;;18.50;;
35330;SDS011;21441;52.190;20.910;2024-02-26T05:41:26;37.03;;;18.23;;
35330;SDS011;21441;52.190;20.910;2024-02-26T05:43:53;28.50;;;18.05;;
35330;SDS011;21441;52.190;20.910;2024-02-26T05:46:21;29.65;;;18.08;;
35330;SDS011;21441;52.190;20.910;2024-02-26T05:48:49;31.55;;;18.52;;
35330;SDS011;21441;52.190;20.910;2024-02-26T05:51:17;27.48;;;17.75;;
35330;SDS011;21441;52.190;20.910;2024-02-26T05:53:43;29.20;;;18.38;;
35330;SDS011;21441;52.190;20.910;2024-02-26T05:56:10;29.75;;;16.92;;
35330;SDS011;21441;52.190;20.910;2024-02-26T05:58:37;26.00;;;17.35;;
35330;SDS011;21441;52.190;20.910;2024-02-26T06:01:04;27.83;;;17.63;;
35330;SDS011;21441;52.190;20.910;2024-02-26T06:03:47;26.52;;;18.10;;
35330;SDS011;21441;52.190;20.910;2024-02-26T06:06:34;29.92;;;17.75;;
35330;SDS011;21441;52.190;20.910;2024-02-26T06:09:03;26.50;;;16.88;;
35330;SDS011;21441;52.190;20.910;2024-02-26T06:11:36;29.85;;;18.90;;
35330;SDS011;21441;52.190;20.910;2024-02-26T06:14:06;32.47;;;18.17;;
35330;SDS011;21441;52.190;20.910;2024-02-26T06:16:40;25.92;;;17.02;;
35330;SDS011;21441;52.190;20.910;2024-02-26T06:19:15;30.85;;;18.75;;
35330;SDS011;21441;52.190;20.910;2024-02-26T06:21:43;28.48;;;19.10;;
35330;SDS011;21441;52.190;20.910;2024-02-26T06:27:00;25.63;;;16.77;;
35330;SDS011;21441;52.190;20.910;2024-02-26T06:29:27;28.77;;;17.90;;
35330;SDS011;21441;52.190;20.910;2024-02-26T06:34:46;29.38;;;19.25;;
35330;SDS011;21441;52.190;20.910;2024-02-26T06:39:56;28.85;;;17.58;;
35330;SDS011;21441;52.190;20.910;2024-02-26T06:42:24;24.70;;;17.38;;
35330;SDS011;21441;52.190;20.910;2024-02-26T06:44:57;27.90;;;18.13;;
35330;SDS011;21441;52.190;20.910;2024-02-26T06:47:25;28.92;;;18.15;;
35330;SDS011;21441;52.190;20.910;2024-02-26T06:49:58;25.35;;;18.38;;
35330;SDS011;21441;52.190;20.910;2024-02-26T06:52:33;28.08;;;18.20;;
35330;SDS011;21441;52.190;20.910;2024-02-26T06:55:09;25.60;;;18.07;;
35330;SDS011;21441;52.190;20.910;2024-02-26T06:57:41;27.08;;;16.98;;
35330;SDS011;21441;52.190;20.910;2024-02-26T07:00:08;23.08;;;15.98;;
35330;SDS011;21441;52.190;20.910;2024-02-26T07:02:40;22.60;;;16.63;;
35330;SDS011;21441;52.190;20.910;2024-02-26T07:05:08;24.90;;;15.95;;
35330;SDS011;21441;52.190;20.910;2024-02-26T07:07:35;21.15;;;14.48;;
35330;SDS011;21441;52.190;20.910;2024-02-26T07:10:02;21.88;;;14.77;;
35330;SDS011;21441;52.190;20.910;2024-02-26T07:12:31;21.08;;;14.13;;
35330;SDS011;21441;52.190;20.910;2024-02-26T07:14:58;20.55;;;13.73;;
35330;SDS011;21441;52.190;20.910;2024-02-26T07:17:25;19.83;;;13.50;;
35330;SDS011;21441;52.190;20.910;2024-02-26T07:19:51;22.58;;;14.50;;
35330;SDS011;21441;52.190;20.910;2024-02-26T07:22:20;18.77;;;12.77;;
35330;SDS011;21441;52.190;20.910;2024-02-26T07:24:46;19.15;;;14.02;;
35330;SDS011;21441;52.190;20.910;2024-02-26T07:27:13;20.38;;;13.43;;
35330;SDS011;21441;52.190;20.910;2024-02-26T07:29:43;19.60;;;13.45;;
35330;SDS011;21441;52.190;20.910;2024-02-26T07:32:32;20.38;;;13.68;;
35330;SDS011;21441;52.190;20.910;2024-02-26T07:35:03;18.27;;;13.85;;
35330;SDS011;21441;52.190;20.910;2024-02-26T07:37:32;18.60;;;13.52;;
35330;SDS011;21441;52.190;20.910;2024-02-26T07:39:59;18.98;;;13.95;;
35330;SDS011;21441;52.190;20.910;2024-02-26T07:42:26;22.15;;;14.93;;
35330;SDS011;21441;52.190;20.910;2024-02-26T07:44:55;19.08;;;13.82;;
35330;SDS011;21441;52.190;20.910;2024-02-26T07:47:30;23.17;;;14.48;;
35330;SDS011;21441;52.190;20.910;2024-02-26T07:50:00;22.52;;;15.68;;
35330;SDS011;21441;52.190;20.910;2024-02-26T07:52:28;24.45;;;17.38;;
35330;SDS011;21441;52.190;20.910;2024-02-26T07:54:57;22.02;;;15.85;;
35330;SDS011;21441;52.190;20.910;2024-02-26T07:57:24;24.63;;;15.35;;
35330;SDS011;21441;52.190;20.910;2024-02-26T07:59:53;24.47;;;15.63;;
35330;SDS011;21441;52.190;20.910;2024-02-26T08:02:24;25.63;;;16.50;;
35330;SDS011;21441;52.190;20.910;2024-02-26T08:04:51;25.85;;;15.88;;
35330;SDS011;21441;52.190;20.910;2024-02-26T08:07:18;22.73;;;15.65;;
35330;SDS011;21441;52.190;20.910;2024-02-26T08:09:45;24.95;;;16.30;;
35330;SDS011;21441;52.190;20.910;2024-02-26T08:12:14;23.80;;;17.13;;
35330;SDS011;21441;52.190;20.910;2024-02-26T08:14:42;24.95;;;17.58;;
35330;SDS011;21441;52.190;20.910;2024-02-26T08:17:09;25.45;;;17.42;;
35330;SDS011;21441;52.190;20.910;2024-02-26T08:19:36;26.27;;;17.70;;
35330;SDS011;21441;52.190;20.910;2024-02-26T08:22:03;24.15;;;16.58;;
35330;SDS011;21441;52.190;20.910;2024-02-26T08:24:30;27.50;;;16.88;;
35330;SDS011;21441;52.190;20.910;2024-02-26T08:26:57;26.05;;;19.33;;
35330;SDS011;21441;52.190;20.910;2024-02-26T08:29:25;31.67;;;19.02;;
35330;SDS011;21441;52.190;20.910;2024-02-26T08:31:52;20.90;;;15.93;;
35330;SDS011;21441;52.190;20.910;2024-02-26T08:34:18;23.65;;;16.33;;
35330;SDS011;21441;52.190;20.910;2024-02-26T08:36:46;23.48;;;15.65;;
35330;SDS011;21441;52.190;20.910;2024-02-26T08:39:14;24.05;;;15.82;;
35330;SDS011;21441;52.190;20.910;2024-02-26T08:41:43;22.92;;;16.33;;
35330;SDS011;21441;52.190;20.910;2024-02-26T08:44:09;23.33;;;15.52;;
35330;SDS011;21441;52.190;20.910;2024-02-26T08:46:38;19.75;;;14.88;;
35330;SDS011;21441;52.190;20.910;2024-02-26T08:49:04;20.65;;;14.50;;
35330;SDS011;21441;52.190;20.910;2024-02-26T08:51:31;22.52;;;16.17;;
35330;SDS011;21441;52.190;20.910;2024-02-26T08:53:58;20.00;;;14.90;;
35330;SDS011;21441;52.190;20.910;2024-02-26T08:56:25;24.25;;;16.67;;
35330;SDS011;21441;52.190;20.910;2024-02-26T08:58:52;19.85;;;14.27;;
35330;SDS011;21441;52.190;20.910;2024-02-26T09:01:22;21.63;;;15.07;;
35330;SDS011;21441;52.190;20.910;2024-02-26T09:03:51;19.75;;;15.00;;
35330;SDS011;21441;52.190;20.910;2024-02-26T09:06:17;17.75;;;15.07;;
35330;SDS011;21441;52.190;20.910;2024-02-26T09:08:44;20.25;;;14.25;;
35330;SDS011;21441;52.190;20.910;2024-02-26T09:11:11;18.20;;;14.23;;
35330;SDS011;21441;52.190;20.910;2024-02-26T09:13:37;17.48;;;13.73;;
35330;SDS011;21441;52.190;20.910;2024-02-26T09:16:05;20.08;;;14.32;;
35330;SDS011;21441;52.190;20.910;2024-02-26T09:18:31;16.67;;;13.63;;
35330;SDS011;21441;52.190;20.910;2024-02-26T09:21:00;18.23;;;13.52;;
35330;SDS011;21441;52.190;20.910;2024-02-26T09:23:30;16.67;;;13.85;;
35330;SDS011;21441;52.190;20.910;2024-02-26T09:25:57;20.38;;;13.52;;
35330;SDS011;21441;52.190;20.910;2024-02-26T09:28:23;18.25;;;14.65;;
35330;SDS011;21441;52.190;20.910;2024-02-26T09:30:50;19.33;;;14.80;;
35330;SDS011;21441;52.190;20.910;2024-02-26T09:33:17;19.35;;;13.57;;
35330;SDS011;21441;52.190;20.910;2024-02-26T09:35:43;19.52;;;13.40;;
35330;SDS011;21441;52.190;20.910;2024-02-26T09:38:11;18.20;;;13.30;;
35330;SDS011;21441;52.190;20.910;2024-02-26T09:40:39;16.92;;;13.80;;
35330;SDS011;21441;52.190;20.910;2024-02-26T09:43:06;16.48;;;13.43;;
35330;SDS011;21441;52.190;20.910;2024-02-26T09:45:34;15.23;;;13.02;;
35330;SDS011;21441;52.190;20.910;2024-02-26T09:48:01;15.88;;;12.77;;
35330;SDS011;21441;52.190;20.910;2024-02-26T09:50:29;17.55;;;12.63;;
35330;SDS011;21441;52.190;20.910;2024-02-26T09:52:56;19.08;;;12.80;;
35330;SDS011;21441;52.190;20.910;2024-02-26T09:55:26;16.77;;;13.68;;
35330;SDS011;21441;52.190;20.910;2024-02-26T09:57:53;23.13;;;14.52;;
35330;SDS011;21441;52.190;20.910;2024-02-26T10:00:21;18.25;;;13.95;;
35330;SDS011;21441;52.190;20.910;2024-02-26T10:02:48;18.35;;;13.77;;
35330;SDS011;21441;52.190;20.910;2024-02-26T10:05:16;13.30;;;11.88;;
35330;SDS011;21441;52.190;20.910;2024-02-26T10:07:44;17.77;;;14.07;;
35330;SDS011;21441;52.190;20.910;2024-02-26T10:10:10;14.27;;;12.40;;
35330;SDS011;21441;52.190;20.910;2024-02-26T10:12:39;17.63;;;12.95;;
35330;SDS011;21441;52.190;20.910;2024-02-26T10:15:06;19.50;;;13.90;;
35330;SDS011;21441;52.190;20.910;2024-02-26T10:17:33;18.08;;;13.82;;
35330;SDS011;21441;52.190;20.910;2024-02-26T10:20:10;16.48;;;13.13;;
35330;SDS011;21441;52.190;20.910;2024-02-26T10:22:37;14.32;;;11.25;;
35330;SDS011;21441;52.190;20.910;2024-02-26T10:25:04;14.32;;;11.48;;
35330;SDS011;21441;52.190;20.910;2024-02-26T10:27:31;14.27;;;11.15;;
35330;SDS011;21441;52.190;20.910;2024-02-26T10:29:59;14.15;;;11.30;;
35330;SDS011;21441;52.190;20.910;2024-02-26T10:32:28;14.43;;;10.93;;
35330;SDS011;21441;52.190;20.910;2024-02-26T10:34:55;13.73;;;10.88;;
35330;SDS011;21441;52.190;20.910;2024-02-26T10:37:22;15.18;;;12.25;;
35330;SDS011;21441;52.190;20.910;2024-02-26T10:39:50;17.23;;;12.50;;
35330;SDS011;21441;52.190;20.910;2024-02-26T10:42:17;16.88;;;12.32;;
35330;SDS011;21441;52.190;20.910;2024-02-26T10:44:45;16.00;;;12.70;;
35330;SDS011;21441;52.190;20.910;2024-02-26T10:47:15;12.48;;;11.18;;
35330;SDS011;21441;52.190;20.910;2024-02-26T10:49:46;14.57;;;10.93;;
35330;SDS011;21441;52.190;20.910;2024-02-26T10:52:13;15.30;;;11.55;;
35330;SDS011;21441;52.190;20.910;2024-02-26T10:54:41;16.65;;;12.38;;
35330;SDS011;21441;52.190;20.910;2024-02-26T10:57:11;14.68;;;11.30;;
35330;SDS011;21441;52.190;20.910;2024-02-26T10:59:39;12.75;;;10.82;;
35330;SDS011;21441;52.190;20.910;2024-02-26T11:02:06;14.68;;;12.23;;
35330;SDS011;21441;52.190;20.910;2024-02-26T11:04:35;13.00;;;10.80;;
35330;SDS011;21441;52.190;20.910;2024-02-26T11:07:02;14.32;;;11.15;;
35330;SDS011;21441;52.190;20.910;2024-02-26T11:09:30;13.25;;;9.45;;
35330;SDS011;21441;52.190;20.910;2024-02-26T11:11:57;13.52;;;10.35;;
35330;SDS011;21441;52.190;20.910;2024-02-26T11:14:25;13.23;;;10.80;;
35330;SDS011;21441;52.190;20.910;2024-02-26T11:16:52;12.38;;;9.68;;
35330;SDS011;21441;52.190;20.910;2024-02-26T11:19:20;10.88;;;9.60;;
35330;SDS011;21441;52.190;20.910;2024-02-26T11:21:48;13.55;;;10.23;;
35330;SDS011;21441;52.190;20.910;2024-02-26T11:24:15;11.63;;;9.95;;
35330;SDS011;21441;52.190;20.910;2024-02-26T11:26:44;14.30;;;10.30;;
35330;SDS011;21441;52.190;20.910;2024-02-26T11:29:13;14.57;;;10.75;;
35330;SDS011;21441;52.190;20.910;2024-02-26T11:31:42;13.13;;;9.93;;
35330;SDS011;21441;52.190;20.910;2024-02-26T11:34:09;11.27;;;9.57;;
35330;SDS011;21441;52.190;20.910;2024-02-26T11:36:37;10.50;;;8.95;;
35330;SDS011;21441;52.190;20.910;2024-02-26T11:39:06;10.90;;;8.55;;
35330;SDS011;21441;52.190;20.910;2024-02-26T11:41:32;8.90;;;8.00;;
35330;SDS011;21441;52.190;20.910;2024-02-26T11:44:01;8.55;;;7.65;;
35330;SDS011;21441;52.190;20.910;2024-02-26T11:46:28;8.75;;;7.35;;
35330;SDS011;21441;52.190;20.910;2024-02-26T11:48:58;7.82;;;6.30;;
35330;SDS011;21441;52.190;20.910;2024-02-26T11:51:25;7.20;;;6.35;;
35330;SDS011;21441;52.190;20.910;2024-02-26T11:53:52;8.23;;;6.38;;
35330;SDS011;21441;52.190;20.910;2024-02-26T11:56:23;6.22;;;5.50;;
35330;SDS011;21441;52.190;20.910;2024-02-26T11:58:59;9.63;;;6.93;;
35330;SDS011;21441;52.190;20.910;2024-02-26T12:01:41;12.18;;;7.82;;
35330;SDS011;21441;52.190;20.910;2024-02-26T12:04:13;7.32;;;6.60;;
35330;SDS011;21441;52.190;20.910;2024-02-26T12:06:49;7.55;;;6.80;;
35330;SDS011;21441;52.190;20.910;2024-02-26T12:09:33;6.30;;;5.70;;
35330;SDS011;21441;52.190;20.910;2024-02-26T12:12:02;5.78;;;5.28;;
35330;SDS011;21441;52.190;20.910;2024-02-26T12:14:29;5.72;;;5.05;;
35330;SDS011;21441;52.190;20.910;2024-02-26T12:16:56;7.45;;;5.95;;
35330;SDS011;21441;52.190;20.910;2024-02-26T12:19:23;8.30;;;4.97;;
35330;SDS011;21441;52.190;20.910;2024-02-26T12:21:51;6.10;;;5.43;;
35330;SDS011;21441;52.190;20.910;2024-02-26T12:24:19;6.05;;;5.45;;
35330;SDS011;21441;52.190;20.910;2024-02-26T12:26:46;7.10;;;6.18;;
35330;SDS011;21441;52.190;20.910;2024-02-26T12:29:14;5.65;;;5.15;;
35330;SDS011;21441;52.190;20.910;2024-02-26T12:31:41;5.63;;;5.13;;
35330;SDS011;21441;52.190;20.910;2024-02-26T12:34:08;6.03;;;5.10;;
35330;SDS011;21441;52.190;20.910;2024-02-26T12:36:36;5.45;;;4.93;;
35330;SDS011;21441;52.190;20.910;2024-02-26T12:39:04;5.45;;;4.95;;
35330;SDS011;21441;52.190;20.910;2024-02-26T12:41:32;8.65;;;4.68;;
35330;SDS011;21441;52.190;20.910;2024-02-26T12:43:59;4.63;;;4.22;;
35330;SDS011;21441;52.190;20.910;2024-02-26T12:46:27;5.93;;;5.40;;
35330;SDS011;21441;52.190;20.910;2024-02-26T12:48:55;5.45;;;4.20;;
35330;SDS011;21441;52.190;20.910;2024-02-26T12:51:22;5.97;;;3.80;;
35330;SDS011;21441;52.190;20.910;2024-02-26T12:53:49;6.03;;;4.10;;
35330;SDS011;21441;52.190;20.910;2024-02-26T12:56:17;4.70;;;3.67;;
35330;SDS011;21441;52.190;20.910;2024-02-26T12:58:44;4.10;;;3.80;;
35330;SDS011;21441;52.190;20.910;2024-02-26T13:01:14;5.38;;;4.10;;
35330;SDS011;21441;52.190;20.910;2024-02-26T13:03:42;3.65;;;3.35;;
35330;SDS011;21441;52.190;20.910;2024-02-26T13:06:09;4.47;;;3.30;;
35330;SDS011;21441;52.190;20.910;2024-02-26T13:08:37;3.03;;;2.72;;
35330;SDS011;21441;52.190;20.910;2024-02-26T13:11:04;5.45;;;2.90;;
35330;SDS011;21441;52.190;20.910;2024-02-26T13:13:30;3.30;;;3.00;;
35330;SDS011;21441;52.190;20.910;2024-02-26T13:16:04;4.22;;;2.97;;
35330;SDS011;21441;52.190;20.910;2024-02-26T13:18:32;3.20;;;2.78;;
35330;SDS011;21441;52.190;20.910;2024-02-26T13:21:10;3.35;;;3.03;;
35330;SDS011;21441;52.190;20.910;2024-02-26T13:23:37;4.22;;;3.00;;
35330;SDS011;21441;52.190;20.910;2024-02-26T13:26:04;4.35;;;2.88;;
35330;SDS011;21441;52.190;20.910;2024-02-26T13:28:31;3.00;;;2.80;;
35330;SDS011;21441;52.190;20.910;2024-02-26T13:30:58;3.38;;;2.80;;
35330;SDS011;21441;52.190;20.910;2024-02-26T13:33:27;3.30;;;2.88;;
35330;SDS011;21441;52.190;20.910;2024-02-26T13:36:03;2.80;;;2.58;;
35330;SDS011;21441;52.190;20.910;2024-02-26T13:38:32;3.55;;;2.78;;
35330;SDS011;21441;52.190;20.910;2024-02-26T13:40:58;4.45;;;2.92;;
35330;SDS011;21441;52.190;20.910;2024-02-26T13:43:26;3.90;;;2.55;;
35330;SDS011;21441;52.190;20.910;2024-02-26T13:45:52;3.22;;;2.92;;
35330;SDS011;21441;52.190;20.910;2024-02-26T13:48:19;3.22;;;2.53;;
35330;SDS011;21441;52.190;20.910;2024-02-26T13:50:46;3.97;;;2.78;;
35330;SDS011;21441;52.190;20.910;2024-02-26T13:53:13;3.00;;;2.80;;
35330;SDS011;21441;52.190;20.910;2024-02-26T13:55:41;2.60;;;2.40;;
35330;SDS011;21441;52.190;20.910;2024-02-26T13:58:11;3.70;;;2.55;;
35330;SDS011;21441;52.190;20.910;2024-02-26T14:00:38;3.40;;;2.70;;
35330;SDS011;21441;52.190;20.910;2024-02-26T14:03:07;3.08;;;2.70;;
35330;SDS011;21441;52.190;20.910;2024-02-26T14:05:34;3.58;;;2.50;;
35330;SDS011;21441;52.190;20.910;2024-02-26T14:08:01;3.38;;;2.53;;
35330;SDS011;21441;52.190;20.910;2024-02-26T14:10:27;3.20;;;2.63;;
35330;SDS011;21441;52.190;20.910;2024-02-26T14:12:57;3.33;;;2.75;;
35330;SDS011;21441;52.190;20.910;2024-02-26T14:15:24;2.47;;;2.08;;
35330;SDS011;21441;52.190;20.910;2024-02-26T14:17:51;3.00;;;2.40;;
35330;SDS011;21441;52.190;20.910;2024-02-26T14:20:21;6.03;;;3.13;;
35330;SDS011;21441;52.190;20.910;2024-02-26T14:22:48;3.67;;;3.38;;
35330;SDS011;21441;52.190;20.910;2024-02-26T14:25:14;4.03;;;3.10;;